sensor_id;sensor_type;location;lat;lon;timestamp;pressure;altitude;pressure_sealevel;temperature;humidity
75895;BME280;64573;50.328;15.014;2023-08-21T00:01:13;99456.53;;;21.32;100.00
75895;BME280;64573;50.328;15.014;2023-08-21T00:03:38;99445.63;;;21.32;100.00
75895;BME280;64573;50.328;15.014;2023-08-21T00:06:04;99448.31;;;21.43;100.00
75895;BME280;64573;50.328;15.014;2023-08-21T00:08:29;99444.88;;;21.48;100.00
75895;BME280;64573;50.328;15.014;2023-08-21T00:10:55;99447.03;;;21.23;100.00
75895;BME280;64573;50.328;15.014;2023-08-21T00:13:21;99444.78;;;21.31;100.00
75895;BME280;64573;50.328;15.014;2023-08-21T00:15:46;99442.16;;;21.36;100.00
75895;BME280;64573;50.328;15.014;2023-08-21T00:18:11;99442.53;;;21.28;100.00
75895;BME280;64573;50.328;15.014;2023-08-21T00:20:37;99440.13;;;21.20;100.00
75895;BME280;64573;50.328;15.014;2023-08-21T00:23:02;99436.59;;;21.19;100.00
75895;BME280;64573;50.328;15.014;2023-08-21T00:25:28;99433.28;;;21.17;100.00
75895;BME280;64573;50.328;15.014;2023-08-21T00:27:54;99417.72;;;21.41;100.00
75895;BME280;64573;50.328;15.014;2023-08-21T00:30:19;99405.81;;;21.88;100.00
75895;BME280;64573;50.328;15.014;2023-08-21T00:32:44;99386.13;;;22.31;100.00
75895;BME280;64573;50.328;15.014;2023-08-21T00:35:10;99377.59;;;22.44;100.00
75895;BME280;64573;50.328;15.014;2023-08-21T00:37:35;99366.66;;;22.61;100.00
75895;BME280;64573;50.328;15.014;2023-08-21T00:40:00;99371.13;;;22.67;100.00
75895;BME280;64573;50.328;15.014;2023-08-21T00:42:26;99377.25;;;22.74;100.00
75895;BME280;64573;50.328;15.014;2023-08-21T00:44:51;99383.63;;;22.63;100.00
75895;BME280;64573;50.328;15.014;2023-08-21T00:47:16;99390.94;;;22.24;100.00
75895;BME280;64573;50.328;15.014;2023-08-21T00:49:42;99406.66;;;21.88;100.00
75895;BME280;64573;50.328;15.014;2023-08-21T00:52:11;99416.28;;;21.79;100.00
75895;BME280;64573;50.328;15.014;2023-08-21T00:54:37;99428.88;;;21.52;100.00
75895;BME280;64573;50.328;15.014;2023-08-21T00:57:04;99430.16;;;21.49;100.00
75895;BME280;64573;50.328;15.014;2023-08-21T00:59:30;99429.91;;;21.51;100.00
75895;BME280;64573;50.328;15.014;2023-08-21T01:01:55;99433.25;;;21.41;100.00
75895;BME280;64573;50.328;15.014;2023-08-21T01:04:21;99431.72;;;21.21;100.00
75895;BME280;64573;50.328;15.014;2023-08-21T01:06:48;99436.84;;;20.95;100.00
75895;BME280;64573;50.328;15.014;2023-08-21T01:15:07;99446.22;;;20.87;100.00
75895;BME280;64573;50.328;15.014;2023-08-21T01:17:36;99444.78;;;20.84;100.00
75895;BME280;64573;50.328;15.014;2023-08-21T01:22:39;99452.03;;;20.79;100.00
75895;BME280;64573;50.328;15.014;2023-08-21T01:25:05;99456.28;;;20.75;100.00
75895;BME280;64573;50.328;15.014;2023-08-21T01:27:31;99445.63;;;20.73;100.00
75895;BME280;64573;50.328;15.014;2023-08-21T01:29:57;99447.16;;;20.69;100.00
75895;BME280;64573;50.328;15.014;2023-08-21T01:32:40;99459.59;;;20.65;100.00
75895;BME280;64573;50.328;15.014;2023-08-21T01:35:07;99454.16;;;20.65;100.00
75895;BME280;64573;50.328;15.014;2023-08-21T01:37:35;99447.25;;;20.62;100.00
75895;BME280;64573;50.328;15.014;2023-08-21T01:40:01;99449.16;;;20.62;100.00
75895;BME280;64573;50.328;15.014;2023-08-21T01:42:26;99442.28;;;20.59;100.00
75895;BME280;64573;50.328;15.014;2023-08-21T01:44:51;99446.53;;;20.55;100.00
75895;BME280;64573;50.328;15.014;2023-08-21T01:47:17;99441.81;;;20.51;100.00
75895;BME280;64573;50.328;15.014;2023-08-21T01:49:42;99437.28;;;20.45;100.00
75895;BME280;64573;50.328;15.014;2023-08-21T01:52:07;99441.66;;;20.46;100.00
75895;BME280;64573;50.328;15.014;2023-08-21T01:54:33;99438.13;;;20.45;100.00
75895;BME280;64573;50.328;15.014;2023-08-21T01:56:58;99436.88;;;20.41;100.00
75895;BME280;64573;50.328;15.014;2023-08-21T01:59:24;99438.03;;;20.33;100.00
75895;BME280;64573;50.328;15.014;2023-08-21T02:01:49;99444.22;;;20.29;100.00
75895;BME280;64573;50.328;15.014;2023-08-21T02:04:15;99447.38;;;20.26;100.00
75895;BME280;64573;50.328;15.014;2023-08-21T02:06:40;99451.06;;;20.31;100.00
75895;BME280;64573;50.328;15.014;2023-08-21T02:09:05;99454.97;;;20.24;100.00
75895;BME280;64573;50.328;15.014;2023-08-21T02:11:31;99446.53;;;20.14;100.00
75895;BME280;64573;50.328;15.014;2023-08-21T02:13:57;99444.94;;;20.06;100.00
75895;BME280;64573;50.328;15.014;2023-08-21T02:16:22;99438.16;;;19.97;100.00
75895;BME280;64573;50.328;15.014;2023-08-21T02:18:48;99453.19;;;19.88;100.00
75895;BME280;64573;50.328;15.014;2023-08-21T02:21:13;99442.63;;;19.79;100.00
75895;BME280;64573;50.328;15.014;2023-08-21T02:23:38;99447.91;;;19.74;100.00
75895;BME280;64573;50.328;15.014;2023-08-21T02:26:04;99430.97;;;19.72;100.00
75895;BME280;64573;50.328;15.014;2023-08-21T02:28:29;99433.72;;;19.84;100.00
75895;BME280;64573;50.328;15.014;2023-08-21T02:30:54;99429.69;;;19.75;100.00
75895;BME280;64573;50.328;15.014;2023-08-21T02:33:20;99436.56;;;19.77;100.00
75895;BME280;64573;50.328;15.014;2023-08-21T02:35:45;99425.91;;;19.76;100.00
75895;BME280;64573;50.328;15.014;2023-08-21T02:38:10;99424.16;;;19.81;100.00
75895;BME280;64573;50.328;15.014;2023-08-21T02:40:36;99420.94;;;19.73;100.00
75895;BME280;64573;50.328;15.014;2023-08-21T02:43:01;99415.09;;;19.69;100.00
75895;BME280;64573;50.328;15.014;2023-08-21T02:45:27;99420.78;;;19.68;100.00
75895;BME280;64573;50.328;15.014;2023-08-21T02:47:52;99426.69;;;19.65;100.00
75895;BME280;64573;50.328;15.014;2023-08-21T02:50:17;99419.50;;;19.70;100.00
75895;BME280;64573;50.328;15.014;2023-08-21T02:52:43;99423.06;;;19.71;100.00
75895;BME280;64573;50.328;15.014;2023-08-21T02:55:08;99414.50;;;19.67;100.00
75895;BME280;64573;50.328;15.014;2023-08-21T02:57:34;99423.97;;;19.65;100.00
75895;BME280;64573;50.328;15.014;2023-08-21T02:59:59;99428.09;;;19.67;100.00
75895;BME280;64573;50.328;15.014;2023-08-21T03:02:24;99425.03;;;19.64;100.00
75895;BME280;64573;50.328;15.014;2023-08-21T03:07:19;99435.91;;;19.64;100.00
75895;BME280;64573;50.328;15.014;2023-08-21T03:09:45;99442.19;;;19.64;100.00
75895;BME280;64573;50.328;15.014;2023-08-21T03:12:12;99441.19;;;19.59;100.00
75895;BME280;64573;50.328;15.014;2023-08-21T03:14:37;99436.19;;;19.55;100.00
75895;BME280;64573;50.328;15.014;2023-08-21T03:17:03;99436.03;;;19.50;100.00
75895;BME280;64573;50.328;15.014;2023-08-21T03:19:28;99433.63;;;19.42;100.00
75895;BME280;64573;50.328;15.014;2023-08-21T03:21:53;99431.50;;;19.44;100.00
75895;BME280;64573;50.328;15.014;2023-08-21T03:24:19;99435.28;;;19.43;100.00
75895;BME280;64573;50.328;15.014;2023-08-21T03:26:44;99432.66;;;19.37;100.00
75895;BME280;64573;50.328;15.014;2023-08-21T03:29:10;99429.94;;;19.37;100.00
75895;BME280;64573;50.328;15.014;2023-08-21T03:31:35;99428.63;;;19.39;100.00
75895;BME280;64573;50.328;15.014;2023-08-21T03:34:01;99429.03;;;19.43;100.00
75895;BME280;64573;50.328;15.014;2023-08-21T03:36:26;99446.09;;;19.50;100.00
75895;BME280;64573;50.328;15.014;2023-08-21T03:39:02;99480.56;;;19.56;100.00
75895;BME280;64573;50.328;15.014;2023-08-21T03:41:29;99480.75;;;19.54;100.00
75895;BME280;64573;50.328;15.014;2023-08-21T03:43:54;99462.13;;;19.58;100.00
75895;BME280;64573;50.328;15.014;2023-08-21T03:46:19;99474.09;;;19.57;100.00
75895;BME280;64573;50.328;15.014;2023-08-21T03:48:45;99497.38;;;19.46;100.00
75895;BME280;64573;50.328;15.014;2023-08-21T03:51:10;99500.03;;;19.53;100.00
75895;BME280;64573;50.328;15.014;2023-08-21T03:53:35;99489.69;;;19.43;100.00
75895;BME280;64573;50.328;15.014;2023-08-21T03:56:01;99503.66;;;19.47;100.00
75895;BME280;64573;50.328;15.014;2023-08-21T03:58:26;99516.38;;;19.35;100.00
75895;BME280;64573;50.328;15.014;2023-08-21T04:00:55;99497.84;;;19.43;100.00
75895;BME280;64573;50.328;15.014;2023-08-21T04:03:20;99498.97;;;19.54;100.00
75895;BME280;64573;50.328;15.014;2023-08-21T04:05:46;99498.50;;;19.64;100.00
75895;BME280;64573;50.328;15.014;2023-08-21T04:08:11;99488.16;;;19.84;100.00
75895;BME280;64573;50.328;15.014;2023-08-21T04:10:36;99486.25;;;20.03;100.00
75895;BME280;64573;50.328;15.014;2023-08-21T04:13:04;99486.72;;;20.30;100.00
75895;BME280;64573;50.328;15.014;2023-08-21T04:15:29;99467.25;;;20.45;100.00
75895;BME280;64573;50.328;15.014;2023-08-21T04:17:54;99469.25;;;20.49;100.00
75895;BME280;64573;50.328;15.014;2023-08-21T04:20:20;99471.88;;;20.56;100.00
75895;BME280;64573;50.328;15.014;2023-08-21T04:22:47;99460.63;;;20.64;100.00
75895;BME280;64573;50.328;15.014;2023-08-21T04:27:37;99441.47;;;20.82;100.00
75895;BME280;64573;50.328;15.014;2023-08-21T04:30:03;99425.69;;;20.96;100.00
75895;BME280;64573;50.328;15.014;2023-08-21T04:32:30;99424.84;;;21.07;100.00
75895;BME280;64573;50.328;15.014;2023-08-21T04:34:55;99428.66;;;21.18;100.00
75895;BME280;64573;50.328;15.014;2023-08-21T04:37:20;99424.25;;;21.29;100.00
75895;BME280;64573;50.328;15.014;2023-08-21T04:39:50;99425.78;;;21.36;100.00
75895;BME280;64573;50.328;15.014;2023-08-21T04:42:15;99419.41;;;21.31;100.00
75895;BME280;64573;50.328;15.014;2023-08-21T04:44:41;99412.84;;;21.43;100.00
75895;BME280;64573;50.328;15.014;2023-08-21T04:47:26;99423.75;;;21.43;100.00
75895;BME280;64573;50.328;15.014;2023-08-21T04:49:52;99422.09;;;21.42;100.00
75895;BME280;64573;50.328;15.014;2023-08-21T04:52:21;99423.66;;;21.38;100.00
75895;BME280;64573;50.328;15.014;2023-08-21T04:54:47;99424.94;;;21.47;100.00
75895;BME280;64573;50.328;15.014;2023-08-21T04:57:13;99430.25;;;21.54;100.00
75895;BME280;64573;50.328;15.014;2023-08-21T04:59:39;99428.56;;;21.65;100.00
75895;BME280;64573;50.328;15.014;2023-08-21T05:02:04;99433.41;;;21.74;100.00
75895;BME280;64573;50.328;15.014;2023-08-21T05:04:30;99429.22;;;21.84;100.00
75895;BME280;64573;50.328;15.014;2023-08-21T05:06:55;99433.56;;;21.96;100.00
75895;BME280;64573;50.328;15.014;2023-08-21T05:09:21;99429.25;;;22.12;100.00
75895;BME280;64573;50.328;15.014;2023-08-21T05:11:46;99417.06;;;22.20;100.00
75895;BME280;64573;50.328;15.014;2023-08-21T05:14:12;99440.28;;;22.17;100.00
75895;BME280;64573;50.328;15.014;2023-08-21T05:16:37;99440.84;;;22.36;100.00
75895;BME280;64573;50.328;15.014;2023-08-21T05:19:02;99442.69;;;22.47;100.00
75895;BME280;64573;50.328;15.014;2023-08-21T05:21:28;99443.28;;;22.66;100.00
75895;BME280;64573;50.328;15.014;2023-08-21T05:23:53;99452.47;;;22.77;100.00
75895;BME280;64573;50.328;15.014;2023-08-21T05:26:19;99451.28;;;23.23;100.00
75895;BME280;64573;50.328;15.014;2023-08-21T05:28:45;99451.75;;;23.76;100.00
75895;BME280;64573;50.328;15.014;2023-08-21T05:31:11;99463.53;;;24.03;100.00
75895;BME280;64573;50.328;15.014;2023-08-21T05:33:36;99455.00;;;24.48;100.00
75895;BME280;64573;50.328;15.014;2023-08-21T05:36:02;99457.53;;;24.92;100.00
75895;BME280;64573;50.328;15.014;2023-08-21T05:38:27;99453.59;;;24.83;100.00
75895;BME280;64573;50.328;15.014;2023-08-21T05:40:52;99446.75;;;24.81;100.00
75895;BME280;64573;50.328;15.014;2023-08-21T05:43:18;99447.78;;;24.74;100.00
75895;BME280;64573;50.328;15.014;2023-08-21T05:45:43;99448.91;;;24.46;100.00
75895;BME280;64573;50.328;15.014;2023-08-21T05:48:09;99446.44;;;24.45;100.00
75895;BME280;64573;50.328;15.014;2023-08-21T05:50:34;99454.63;;;24.13;100.00
75895;BME280;64573;50.328;15.014;2023-08-21T05:53:05;99468.19;;;24.03;100.00
75895;BME280;64573;50.328;15.014;2023-08-21T05:55:31;99484.06;;;24.01;100.00
75895;BME280;64573;50.328;15.014;2023-08-21T05:57:57;99492.56;;;24.04;100.00
75895;BME280;64573;50.328;15.014;2023-08-21T06:00:22;99484.00;;;24.76;100.00
75895;BME280;64573;50.328;15.014;2023-08-21T06:02:47;99471.72;;;25.16;100.00
75895;BME280;64573;50.328;15.014;2023-08-21T06:05:13;99467.13;;;25.79;100.00
75895;BME280;64573;50.328;15.014;2023-08-21T06:07:38;99466.94;;;26.06;100.00
75895;BME280;64573;50.328;15.014;2023-08-21T06:10:06;99461.25;;;26.44;100.00
75895;BME280;64573;50.328;15.014;2023-08-21T06:12:32;99453.56;;;26.76;100.00
75895;BME280;64573;50.328;15.014;2023-08-21T06:14:57;99456.56;;;27.00;100.00
75895;BME280;64573;50.328;15.014;2023-08-21T06:17:23;99449.63;;;27.43;100.00
75895;BME280;64573;50.328;15.014;2023-08-21T06:22:13;99448.06;;;27.07;100.00
75895;BME280;64573;50.328;15.014;2023-08-21T06:24:40;99445.03;;;27.08;100.00
75895;BME280;64573;50.328;15.014;2023-08-21T06:27:06;99447.44;;;27.40;100.00
75895;BME280;64573;50.328;15.014;2023-08-21T06:29:32;99446.69;;;26.63;100.00
75895;BME280;64573;50.328;15.014;2023-08-21T06:31:57;99458.72;;;26.27;100.00
75895;BME280;64573;50.328;15.014;2023-08-21T06:34:22;99450.28;;;27.10;100.00
75895;BME280;64573;50.328;15.014;2023-08-21T06:36:48;99448.50;;;28.09;100.00
75895;BME280;64573;50.328;15.014;2023-08-21T06:39:13;99462.16;;;27.85;100.00
75895;BME280;64573;50.328;15.014;2023-08-21T06:41:38;99455.56;;;28.70;100.00
75895;BME280;64573;50.328;15.014;2023-08-21T06:44:04;99449.03;;;28.95;100.00
75895;BME280;64573;50.328;15.014;2023-08-21T06:46:29;99446.00;;;29.20;100.00
75895;BME280;64573;50.328;15.014;2023-08-21T06:48:54;99437.31;;;29.32;100.00
75895;BME280;64573;50.328;15.014;2023-08-21T06:51:20;99440.78;;;29.66;100.00
75895;BME280;64573;50.328;15.014;2023-08-21T06:53:45;99449.06;;;29.43;100.00
75895;BME280;64573;50.328;15.014;2023-08-21T06:56:11;99443.88;;;29.84;100.00
75895;BME280;64573;50.328;15.014;2023-08-21T06:58:37;99452.78;;;29.04;100.00
75895;BME280;64573;50.328;15.014;2023-08-21T07:01:02;99444.50;;;29.04;100.00
75895;BME280;64573;50.328;15.014;2023-08-21T07:03:27;99446.34;;;28.50;100.00
75895;BME280;64573;50.328;15.014;2023-08-21T07:05:54;99458.00;;;28.76;100.00
75895;BME280;64573;50.328;15.014;2023-08-21T07:08:22;99450.63;;;29.01;100.00
75895;BME280;64573;50.328;15.014;2023-08-21T07:10:48;99447.97;;;28.85;100.00
75895;BME280;64573;50.328;15.014;2023-08-21T07:13:14;99451.66;;;29.34;100.00
75895;BME280;64573;50.328;15.014;2023-08-21T07:15:39;99452.56;;;28.27;100.00
75895;BME280;64573;50.328;15.014;2023-08-21T07:18:04;99446.06;;;29.39;100.00
75895;BME280;64573;50.328;15.014;2023-08-21T07:20:30;99445.44;;;29.71;100.00
75895;BME280;64573;50.328;15.014;2023-08-21T07:22:55;99442.44;;;29.20;100.00
75895;BME280;64573;50.328;15.014;2023-08-21T07:25:21;99447.66;;;29.69;100.00
75895;BME280;64573;50.328;15.014;2023-08-21T07:27:46;99448.94;;;30.19;100.00
75895;BME280;64573;50.328;15.014;2023-08-21T07:30:12;99446.63;;;30.27;100.00
75895;BME280;64573;50.328;15.014;2023-08-21T07:32:38;99455.97;;;30.12;100.00
75895;BME280;64573;50.328;15.014;2023-08-21T07:35:03;99442.69;;;30.14;100.00
75895;BME280;64573;50.328;15.014;2023-08-21T07:37:29;99446.00;;;30.48;100.00
75895;BME280;64573;50.328;15.014;2023-08-21T07:39:54;99454.13;;;30.78;100.00
75895;BME280;64573;50.328;15.014;2023-08-21T07:42:22;99451.16;;;30.74;100.00
75895;BME280;64573;50.328;15.014;2023-08-21T07:44:48;99447.22;;;31.40;100.00
75895;BME280;64573;50.328;15.014;2023-08-21T07:47:13;99441.66;;;31.68;100.00
75895;BME280;64573;50.328;15.014;2023-08-21T07:49:38;99450.91;;;31.63;100.00
75895;BME280;64573;50.328;15.014;2023-08-21T07:52:04;99439.81;;;31.91;100.00
75895;BME280;64573;50.328;15.014;2023-08-21T07:54:30;99451.97;;;31.21;100.00
75895;BME280;64573;50.328;15.014;2023-08-21T07:56:55;99448.03;;;31.54;100.00
75895;BME280;64573;50.328;15.014;2023-08-21T07:59:20;99446.06;;;31.55;100.00
75895;BME280;64573;50.328;15.014;2023-08-21T08:01:46;99442.75;;;30.09;100.00
75895;BME280;64573;50.328;15.014;2023-08-21T08:04:11;99452.09;;;30.51;100.00
75895;BME280;64573;50.328;15.014;2023-08-21T08:06:36;99446.91;;;30.95;100.00
75895;BME280;64573;50.328;15.014;2023-08-21T08:09:02;99447.19;;;31.26;100.00
75895;BME280;64573;50.328;15.014;2023-08-21T08:11:29;99454.44;;;30.76;100.00
75895;BME280;64573;50.328;15.014;2023-08-21T08:13:55;99455.97;;;30.12;100.00
75895;BME280;64573;50.328;15.014;2023-08-21T08:16:20;99446.19;;;30.38;100.00
75895;BME280;64573;50.328;15.014;2023-08-21T08:18:46;99455.00;;;30.40;100.00
75895;BME280;64573;50.328;15.014;2023-08-21T08:21:11;99455.59;;;30.37;100.00
75895;BME280;64573;50.328;15.014;2023-08-21T08:23:36;99458.41;;;31.63;100.00
75895;BME280;64573;50.328;15.014;2023-08-21T08:26:02;99453.47;;;32.37;100.00
75895;BME280;64573;50.328;15.014;2023-08-21T08:28:27;99451.66;;;32.19;100.00
75895;BME280;64573;50.328;15.014;2023-08-21T08:30:53;99463.47;;;31.14;100.00
75895;BME280;64573;50.328;15.014;2023-08-21T08:33:19;99464.31;;;32.61;100.00
75895;BME280;64573;50.328;15.014;2023-08-21T08:35:44;99453.75;;;31.99;100.00
75895;BME280;64573;50.328;15.014;2023-08-21T08:38:09;99451.97;;;30.56;100.00
75895;BME280;64573;50.328;15.014;2023-08-21T08:40:40;99451.41;;;30.40;100.00
75895;BME280;64573;50.328;15.014;2023-08-21T08:43:07;99457.88;;;29.92;100.00
75895;BME280;64573;50.328;15.014;2023-08-21T08:45:34;99459.94;;;29.82;100.00
75895;BME280;64573;50.328;15.014;2023-08-21T08:48:00;99457.38;;;29.66;100.00
75895;BME280;64573;50.328;15.014;2023-08-21T08:50:31;99451.38;;;29.35;100.00
75895;BME280;64573;50.328;15.014;2023-08-21T08:52:58;99453.44;;;30.15;100.00
75895;BME280;64573;50.328;15.014;2023-08-21T08:55:25;99449.91;;;30.66;100.00
75895;BME280;64573;50.328;15.014;2023-08-21T08:57:51;99451.44;;;31.05;100.00
75895;BME280;64573;50.328;15.014;2023-08-21T09:00:17;99443.16;;;32.01;100.00
75895;BME280;64573;50.328;15.014;2023-08-21T09:02:42;99454.00;;;32.84;100.00
75895;BME280;64573;50.328;15.014;2023-08-21T09:05:08;99441.47;;;33.49;100.00
75895;BME280;64573;50.328;15.014;2023-08-21T09:07:35;99453.47;;;33.75;100.00
75895;BME280;64573;50.328;15.014;2023-08-21T09:12:26;99446.09;;;33.62;100.00
75895;BME280;64573;50.328;15.014;2023-08-21T09:14:51;99450.78;;;34.18;100.00
75895;BME280;64573;50.328;15.014;2023-08-21T09:17:17;99442.63;;;34.39;100.00
75895;BME280;64573;50.328;15.014;2023-08-21T09:19:43;99441.78;;;34.99;100.00
75895;BME280;64573;50.328;15.014;2023-08-21T09:22:14;99441.31;;;34.28;100.00
75895;BME280;64573;50.328;15.014;2023-08-21T09:24:41;99443.09;;;34.33;100.00
75895;BME280;64573;50.328;15.014;2023-08-21T09:27:24;99438.16;;;34.90;100.00
75895;BME280;64573;50.328;15.014;2023-08-21T09:29:49;99443.00;;;35.66;99.97
75895;BME280;64573;50.328;15.014;2023-08-21T09:32:15;99439.47;;;35.78;94.47
75895;BME280;64573;50.328;15.014;2023-08-21T09:34:41;99445.03;;;35.86;95.42
75895;BME280;64573;50.328;15.014;2023-08-21T09:39:36;99436.41;;;36.63;86.98
75895;BME280;64573;50.328;15.014;2023-08-21T09:42:06;99430.44;;;36.31;90.43
75895;BME280;64573;50.328;15.014;2023-08-21T09:44:41;99425.94;;;36.18;91.00
75895;BME280;64573;50.328;15.014;2023-08-21T09:47:15;99423.69;;;35.14;100.00
75895;BME280;64573;50.328;15.014;2023-08-21T09:49:40;99424.41;;;32.57;100.00
75895;BME280;64573;50.328;15.014;2023-08-21T09:52:08;99417.09;;;32.02;100.00
75895;BME280;64573;50.328;15.014;2023-08-21T09:54:36;99420.78;;;32.79;100.00
75895;BME280;64573;50.328;15.014;2023-08-21T09:57:03;99416.28;;;32.38;100.00
75895;BME280;64573;50.328;15.014;2023-08-21T09:59:32;99415.66;;;31.91;100.00
75895;BME280;64573;50.328;15.014;2023-08-21T10:01:59;99413.63;;;32.19;100.00
75895;BME280;64573;50.328;15.014;2023-08-21T10:04:25;99409.22;;;33.08;100.00
75895;BME280;64573;50.328;15.014;2023-08-21T10:06:54;99403.81;;;33.42;100.00
75895;BME280;64573;50.328;15.014;2023-08-21T10:09:22;99420.34;;;34.31;100.00
75895;BME280;64573;50.328;15.014;2023-08-21T10:11:48;99418.41;;;34.48;100.00
75895;BME280;64573;50.328;15.014;2023-08-21T10:14:14;99419.81;;;33.85;100.00
75895;BME280;64573;50.328;15.014;2023-08-21T10:19:08;99423.44;;;34.03;100.00
75895;BME280;64573;50.328;15.014;2023-08-21T10:21:39;99421.38;;;34.43;100.00
75895;BME280;64573;50.328;15.014;2023-08-21T10:24:05;99420.47;;;34.95;100.00
75895;BME280;64573;50.328;15.014;2023-08-21T10:26:30;99420.19;;;36.35;90.10
75895;BME280;64573;50.328;15.014;2023-08-21T10:28:56;99416.56;;;35.63;94.40
75895;BME280;64573;50.328;15.014;2023-08-21T10:33:56;99416.97;;;35.53;95.59
75895;BME280;64573;50.328;15.014;2023-08-21T10:39:24;99420.69;;;35.96;93.14
75895;BME280;64573;50.328;15.014;2023-08-21T10:44:34;99415.53;;;35.38;97.25
75895;BME280;64573;50.328;15.014;2023-08-21T10:47:20;99418.19;;;35.73;96.56
75895;BME280;64573;50.328;15.014;2023-08-21T10:49:47;99418.03;;;36.20;92.95
75895;BME280;64573;50.328;15.014;2023-08-21T10:54:48;99416.09;;;35.61;88.31
75895;BME280;64573;50.328;15.014;2023-08-21T10:57:14;99416.69;;;35.46;94.74
75895;BME280;64573;50.328;15.014;2023-08-21T10:59:54;99411.88;;;35.55;84.48
75895;BME280;64573;50.328;15.014;2023-08-21T11:02:21;99421.16;;;34.74;85.85
75895;BME280;64573;50.328;15.014;2023-08-21T11:04:48;99411.34;;;34.16;96.64
75895;BME280;64573;50.328;15.014;2023-08-21T11:07:14;99406.88;;;34.93;90.71
75895;BME280;64573;50.328;15.014;2023-08-21T11:12:09;99410.53;;;35.91;90.48
75895;BME280;64573;50.328;15.014;2023-08-21T11:14:35;99408.56;;;36.12;84.13
75895;BME280;64573;50.328;15.014;2023-08-21T11:17:01;99400.00;;;36.17;83.17
75895;BME280;64573;50.328;15.014;2023-08-21T11:19:26;99404.16;;;36.98;80.38
75895;BME280;64573;50.328;15.014;2023-08-21T11:29:24;99402.44;;;38.72;67.42
75895;BME280;64573;50.328;15.014;2023-08-21T11:31:49;99396.41;;;38.58;71.82
75895;BME280;64573;50.328;15.014;2023-08-21T11:34:19;99398.75;;;38.84;69.13
75895;BME280;64573;50.328;15.014;2023-08-21T11:36:45;99391.44;;;39.11;64.60
75895;BME280;64573;50.328;15.014;2023-08-21T11:39:10;99397.78;;;39.39;63.59
75895;BME280;64573;50.328;15.014;2023-08-21T11:41:56;99390.09;;;37.80;68.46
75895;BME280;64573;50.328;15.014;2023-08-21T11:44:22;99389.09;;;38.25;69.13
75895;BME280;64573;50.328;15.014;2023-08-21T11:46:47;99387.38;;;39.08;67.54
75895;BME280;64573;50.328;15.014;2023-08-21T11:49:12;99387.88;;;38.82;68.75
75895;BME280;64573;50.328;15.014;2023-08-21T11:51:39;99377.16;;;37.64;71.69
75895;BME280;64573;50.328;15.014;2023-08-21T11:54:05;99387.59;;;35.56;84.74
75895;BME280;64573;50.328;15.014;2023-08-21T11:56:31;99380.81;;;35.27;79.73
75895;BME280;64573;50.328;15.014;2023-08-21T11:58:57;99382.59;;;35.32;82.85
75895;BME280;64573;50.328;15.014;2023-08-21T12:01:26;99374.59;;;35.60;80.08
75895;BME280;64573;50.328;15.014;2023-08-21T12:03:51;99380.00;;;35.65;82.17
75895;BME280;64573;50.328;15.014;2023-08-21T12:06:21;99375.94;;;36.46;73.31
75895;BME280;64573;50.328;15.014;2023-08-21T12:08:46;99366.47;;;37.53;70.10
75895;BME280;64573;50.328;15.014;2023-08-21T12:11:12;99363.50;;;39.30;61.48
75895;BME280;64573;50.328;15.014;2023-08-21T12:13:37;99376.06;;;39.05;61.98
75895;BME280;64573;50.328;15.014;2023-08-21T12:16:03;99373.19;;;37.77;65.12
75895;BME280;64573;50.328;15.014;2023-08-21T12:18:29;99369.00;;;36.64;71.16
75895;BME280;64573;50.328;15.014;2023-08-21T12:20:54;99371.03;;;36.43;69.63
75895;BME280;64573;50.328;15.014;2023-08-21T12:23:19;99366.28;;;36.56;71.17
75895;BME280;64573;50.328;15.014;2023-08-21T12:25:45;99355.56;;;35.83;84.78
75895;BME280;64573;50.328;15.014;2023-08-21T12:28:11;99355.47;;;33.12;100.00
75895;BME280;64573;50.328;15.014;2023-08-21T12:30:36;99364.16;;;34.11;92.37
75895;BME280;64573;50.328;15.014;2023-08-21T12:33:02;99352.88;;;34.16;91.60
75895;BME280;64573;50.328;15.014;2023-08-21T12:35:27;99357.00;;;35.00;87.66
75895;BME280;64573;50.328;15.014;2023-08-21T12:37:57;99357.41;;;35.58;77.15
75895;BME280;64573;50.328;15.014;2023-08-21T12:40:23;99352.34;;;33.88;91.77
75895;BME280;64573;50.328;15.014;2023-08-21T12:42:48;99356.63;;;33.86;88.86
75895;BME280;64573;50.328;15.014;2023-08-21T12:45:15;99353.38;;;34.44;87.09
75895;BME280;64573;50.328;15.014;2023-08-21T12:47:40;99342.91;;;34.07;91.86
75895;BME280;64573;50.328;15.014;2023-08-21T12:50:06;99342.88;;;33.15;96.08
75895;BME280;64573;50.328;15.014;2023-08-21T12:52:31;99347.44;;;33.68;95.97
75895;BME280;64573;50.328;15.014;2023-08-21T12:54:57;99344.97;;;35.17;76.60
75895;BME280;64573;50.328;15.014;2023-08-21T12:57:22;99351.06;;;34.29;86.35
75895;BME280;64573;50.328;15.014;2023-08-21T12:59:48;99337.41;;;35.18;74.92
75895;BME280;64573;50.328;15.014;2023-08-21T13:02:13;99344.88;;;35.64;72.51
75895;BME280;64573;50.328;15.014;2023-08-21T13:04:38;99339.66;;;36.04;70.70
75895;BME280;64573;50.328;15.014;2023-08-21T13:07:04;99337.72;;;34.69;88.59
75895;BME280;64573;50.328;15.014;2023-08-21T13:09:30;99340.84;;;34.68;81.43
75895;BME280;64573;50.328;15.014;2023-08-21T13:11:55;99334.19;;;34.25;95.64
75895;BME280;64573;50.328;15.014;2023-08-21T13:14:21;99342.22;;;34.18;95.56
75895;BME280;64573;50.328;15.014;2023-08-21T13:19:14;99332.25;;;33.17;95.45
75895;BME280;64573;50.328;15.014;2023-08-21T13:21:39;99330.97;;;34.06;86.06
75895;BME280;64573;50.328;15.014;2023-08-21T13:24:04;99322.31;;;32.85;94.55